sensor_id;sensor_type;location;lat;lon;timestamp;temperature;humidity
27368;DHT22;14839;48.106;11.618;2022-09-09T04:01:59;14.20;94.60
27368;DHT22;14839;48.106;11.618;2022-09-09T04:04:25;14.20;94.60
27368;DHT22;14839;48.106;11.618;2022-09-09T04:06:52;14.20;94.60
27368;DHT22;14839;48.106;11.618;2022-09-09T04:09:18;14.30;94.60
27368;DHT22;14839;48.106;11.618;2022-09-09T04:11:43;14.30;94.60
27368;DHT22;14839;48.106;11.618;2022-09-09T04:14:09;14.30;94.60
27368;DHT22;14839;48.106;11.618;2022-09-09T04:16:34;14.30;94.60
27368;DHT22;14839;48.106;11.618;2022-09-09T04:19:03;14.30;94.60
27368;DHT22;14839;48.106;11.618;2022-09-09T04:21:30;14.40;94.60
27368;DHT22;14839;48.106;11.618;2022-09-09T04:23:55;14.30;94.60
27368;DHT22;14839;48.106;11.618;2022-09-09T04:26:21;14.30;94.60
27368;DHT22;14839;48.106;11.618;2022-09-09T04:28:47;14.30;94.60
27368;DHT22;14839;48.106;11.618;2022-09-09T04:31:17;14.30;94.60
27368;DHT22;14839;48.106;11.618;2022-09-09T04:33:48;14.30;94.60
27368;DHT22;14839;48.106;11.618;2022-09-09T04:36:13;14.30;94.60
27368;DHT22;14839;48.106;11.618;2022-09-09T04:38:39;14.20;94.60
27368;DHT22;14839;48.106;11.618;2022-09-09T04:41:05;14.20;94.60
27368;DHT22;14839;48.106;11.618;2022-09-09T04:43:31;14.20;94.60
27368;DHT22;14839;48.106;11.618;2022-09-09T04:45:57;14.20;94.60
27368;DHT22;14839;48.106;11.618;2022-09-09T04:48:24;14.20;94.60
27368;DHT22;14839;48.106;11.618;2022-09-09T04:50:57;14.20;94.60
27368;DHT22;14839;48.106;11.618;2022-09-09T04:53:23;14.10;94.60
27368;DHT22;14839;48.106;11.618;2022-09-09T04:55:49;14.20;94.60
27368;DHT22;14839;48.106;11.618;2022-09-09T04:58:14;14.20;94.60
27368;DHT22;14839;48.106;11.618;2022-09-09T05:00:40;14.20;94.60
27368;DHT22;14839;48.106;11.618;2022-09-09T05:03:06;14.20;94.60
27368;DHT22;14839;48.106;11.618;2022-09-09T05:05:34;14.20;94.60
27368;DHT22;14839;48.106;11.618;2022-09-09T05:08:07;14.20;94.60
27368;DHT22;14839;48.106;11.618;2022-09-09T05:10:34;14.30;94.60
27368;DHT22;14839;48.106;11.618;2022-09-09T05:13:01;14.30;94.60
27368;DHT22;14839;48.106;11.618;2022-09-09T05:15:27;14.30;94.60
27368;DHT22;14839;48.106;11.618;2022-09-09T05:17:57;14.30;94.60
27368;DHT22;14839;48.106;11.618;2022-09-09T05:20:23;14.40;94.60
27368;DHT22;14839;48.106;11.618;2022-09-09T05:22:53;14.40;94.60
27368;DHT22;14839;48.106;11.618;2022-09-09T05:25:19;14.40;94.60
27368;DHT22;14839;48.106;11.618;2022-09-09T05:27:44;14.50;94.60
27368;DHT22;14839;48.106;11.618;2022-09-09T05:30:10;14.50;94.60
27368;DHT22;14839;48.106;11.618;2022-09-09T05:32:36;14.60;94.60
27368;DHT22;14839;48.106;11.618;2022-09-09T05:35:02;14.60;94.60
27368;DHT22;14839;48.106;11.618;2022-09-09T05:37:28;14.60;94.60
27368;DHT22;14839;48.106;11.618;2022-09-09T05:39:54;14.70;94.60
27368;DHT22;14839;48.106;11.618;2022-09-09T05:42:20;14.70;94.60
27368;DHT22;14839;48.106;11.618;2022-09-09T05:44:46;14.80;94.60
27368;DHT22;14839;48.106;11.618;2022-09-09T05:47:11;14.70;94.60
27368;DHT22;14839;48.106;11.618;2022-09-09T05:49:37;14.70;94.60
27368;DHT22;14839;48.106;11.618;2022-09-09T05:52:02;14.70;94.60
27368;DHT22;14839;48.106;11.618;2022-09-09T05:54:29;14.80;94.60
27368;DHT22;14839;48.106;11.618;2022-09-09T05:56:55;14.80;94.60
27368;DHT22;14839;48.106;11.618;2022-09-09T05:59:20;14.80;94.60
27368;DHT22;14839;48.106;11.618;2022-09-09T06:01:48;14.80;94.60
27368;DHT22;14839;48.106;11.618;2022-09-09T06:04:14;14.90;94.60
27368;DHT22;14839;48.106;11.618;2022-09-09T06:06:39;14.90;94.60
27368;DHT22;14839;48.106;11.618;2022-09-09T06:09:08;15.00;94.60
27368;DHT22;14839;48.106;11.618;2022-09-09T06:11:37;15.00;94.60
27368;DHT22;14839;48.106;11.618;2022-09-09T06:14:03;15.10;94.60
27368;DHT22;14839;48.106;11.618;2022-09-09T06:16:30;15.10;94.60
27368;DHT22;14839;48.106;11.618;2022-09-09T06:18:58;15.20;94.60
27368;DHT22;14839;48.106;11.618;2022-09-09T06:21:32;15.20;94.60
27368;DHT22;14839;48.106;11.618;2022-09-09T06:24:03;15.20;94.60
27368;DHT22;14839;48.106;11.618;2022-09-09T06:26:33;15.20;94.60
27368;DHT22;14839;48.106;11.618;2022-09-09T06:29:00;15.20;94.60
27368;DHT22;14839;48.106;11.618;2022-09-09T06:31:27;15.20;94.60
27368;DHT22;14839;48.106;11.618;2022-09-09T06:33:56;15.20;94.60
27368;DHT22;14839;48.106;11.618;2022-09-09T06:36:24;15.30;94.60
27368;DHT22;14839;48.106;11.618;2022-09-09T06:38:50;15.30;94.60
27368;DHT22;14839;48.106;11.618;2022-09-09T06:41:21;15.30;94.60
27368;DHT22;14839;48.106;11.618;2022-09-09T06:43:47;15.30;94.60
27368;DHT22;14839;48.106;11.618;2022-09-09T06:46:18;15.40;94.60
27368;DHT22;14839;48.106;11.618;2022-09-09T06:48:44;15.50;94.60
27368;DHT22;14839;48.106;11.618;2022-09-09T06:51:13;15.50;94.60
27368;DHT22;14839;48.106;11.618;2022-09-09T06:53:39;15.60;94.60
27368;DHT22;14839;48.106;11.618;2022-09-09T06:56:17;15.70;94.60
27368;DHT22;14839;48.106;11.618;2022-09-09T06:58:44;15.80;94.60
27368;DHT22;14839;48.106;11.618;2022-09-09T07:01:18;16.00;94.60
27368;DHT22;14839;48.106;11.618;2022-09-09T07:03:50;16.10;94.60
27368;DHT22;14839;48.106;11.618;2022-09-09T07:06:30;16.10;94.60
27368;DHT22;14839;48.106;11.618;2022-09-09T07:09:46;16.20;94.60
27368;DHT22;14839;48.106;11.618;2022-09-09T07:11:53;16.20;94.60
27368;DHT22;14839;48.106;11.618;2022-09-09T07:14:19;16.20;94.60
27368;DHT22;14839;48.106;11.618;2022-09-09T07:16:45;16.20;94.60
27368;DHT22;14839;48.106;11.618;2022-09-09T07:19:12;16.20;94.60
27368;DHT22;14839;48.106;11.618;2022-09-09T07:21:38;16.30;94.60
27368;DHT22;14839;48.106;11.618;2022-09-09T07:24:05;16.40;94.60
27368;DHT22;14839;48.106;11.618;2022-09-09T07:26:33;16.40;94.60
27368;DHT22;14839;48.106;11.618;2022-09-09T07:28:58;16.40;94.60
27368;DHT22;14839;48.106;11.618;2022-09-09T07:31:27;16.40;94.60
27368;DHT22;14839;48.106;11.618;2022-09-09T07:33:53;16.40;94.60
27368;DHT22;14839;48.106;11.618;2022-09-09T07:36:24;16.40;94.60
27368;DHT22;14839;48.106;11.618;2022-09-09T07:38:53;16.30;94.60
27368;DHT22;14839;48.106;11.618;2022-09-09T07:41:25;16.20;94.60
27368;DHT22;14839;48.106;11.618;2022-09-09T07:43:52;16.20;94.60
27368;DHT22;14839;48.106;11.618;2022-09-09T07:46:20;16.30;94.60
27368;DHT22;14839;48.106;11.618;2022-09-09T07:48:48;16.20;94.60
27368;DHT22;14839;48.106;11.618;2022-09-09T07:51:18;16.20;94.60
27368;DHT22;14839;48.106;11.618;2022-09-09T07:53:46;16.30;94.60
27368;DHT22;14839;48.106;11.618;2022-09-09T07:56:14;16.40;94.60
27368;DHT22;14839;48.106;11.618;2022-09-09T07:58:44;16.40;94.60
27368;DHT22;14839;48.106;11.618;2022-09-09T08:01:15;16.50;94.60
27368;DHT22;14839;48.106;11.618;2022-09-09T08:03:42;16.60;94.60
27368;DHT22;14839;48.106;11.618;2022-09-09T08:06:10;16.70;94.60
27368;DHT22;14839;48.106;11.618;2022-09-09T08:08:37;16.80;94.60
27368;DHT22;14839;48.106;11.618;2022-09-09T08:11:10;16.90;94.60
27368;DHT22;14839;48.106;11.618;2022-09-09T08:13:37;17.00;94.60
27368;DHT22;14839;48.106;11.618;2022-09-09T08:16:09;17.10;94.60
27368;DHT22;14839;48.106;11.618;2022-09-09T08:18:35;17.10;94.60
27368;DHT22;14839;48.106;11.618;2022-09-09T08:21:10;17.20;94.60
27368;DHT22;14839;48.106;11.618;2022-09-09T08:23:41;17.20;94.60
27368;DHT22;14839;48.106;11.618;2022-09-09T08:26:11;17.20;94.60
27368;DHT22;14839;48.106;11.618;2022-09-09T08:28:38;17.30;94.60
27368;DHT22;14839;48.106;11.618;2022-09-09T08:31:08;17.30;94.60
27368;DHT22;14839;48.106;11.618;2022-09-09T08:33:34;17.50;94.60
27368;DHT22;14839;48.106;11.618;2022-09-09T08:36:01;17.50;94.60
27368;DHT22;14839;48.106;11.618;2022-09-09T08:38:28;17.60;94.60
27368;DHT22;14839;48.106;11.618;2022-09-09T08:41:00;17.70;94.60
27368;DHT22;14839;48.106;11.618;2022-09-09T08:43:31;17.70;94.60
27368;DHT22;14839;48.106;11.618;2022-09-09T08:46:11;17.80;94.60
27368;DHT22;14839;48.106;11.618;2022-09-09T08:49:04;17.70;94.60
27368;DHT22;14839;48.106;11.618;2022-09-09T08:51:32;17.70;94.60
27368;DHT22;14839;48.106;11.618;2022-09-09T08:54:02;17.70;94.60
27368;DHT22;14839;48.106;11.618;2022-09-09T08:56:31;17.70;94.60
27368;DHT22;14839;48.106;11.618;2022-09-09T08:58:59;17.70;94.60
27368;DHT22;14839;48.106;11.618;2022-09-09T09:07:06;17.60;94.60
27368;DHT22;14839;48.106;11.618;2022-09-09T09:12:40;17.50;94.60
27368;DHT22;14839;48.106;11.618;2022-09-09T09:15:29;17.50;94.60
27368;DHT22;14839;48.106;11.618;2022-09-09T09:17:56;17.50;94.60
27368;DHT22;14839;48.106;11.618;2022-09-09T09:23:02;17.60;94.60
27368;DHT22;14839;48.106;11.618;2022-09-09T09:25:35;17.70;94.60
27368;DHT22;14839;48.106;11.618;2022-09-09T09:28:26;17.80;94.60
27368;DHT22;14839;48.106;11.618;2022-09-09T09:31:03;17.90;94.60
27368;DHT22;14839;48.106;11.618;2022-09-09T09:33:45;18.10;94.60
27368;DHT22;14839;48.106;11.618;2022-09-09T09:36:12;18.20;94.60
27368;DHT22;14839;48.106;11.618;2022-09-09T09:38:55;18.20;94.60
27368;DHT22;14839;48.106;11.618;2022-09-09T09:44:03;18.10;94.60
27368;DHT22;14839;48.106;11.618;2022-09-09T09:46:28;18.10;94.60
27368;DHT22;14839;48.106;11.618;2022-09-09T09:49:02;18.10;94.60
27368;DHT22;14839;48.106;11.618;2022-09-09T09:51:30;18.10;94.60
27368;DHT22;14839;48.106;11.618;2022-09-09T09:56:48;18.00;94.60
27368;DHT22;14839;48.106;11.618;2022-09-09T09:59:21;18.00;94.60
27368;DHT22;14839;48.106;11.618;2022-09-09T10:01:47;18.00;94.60
27368;DHT22;14839;48.106;11.618;2022-09-09T10:06:38;17.90;94.60
27368;DHT22;14839;48.106;11.618;2022-09-09T10:11:55;18.00;94.60
27368;DHT22;14839;48.106;11.618;2022-09-09T10:14:33;18.00;94.60
27368;DHT22;14839;48.106;11.618;2022-09-09T10:20:42;18.20;94.60
27368;DHT22;14839;48.106;11.618;2022-09-09T10:23:48;18.30;94.60
27368;DHT22;14839;48.106;11.618;2022-09-09T10:26:44;18.20;94.60
27368;DHT22;14839;48.106;11.618;2022-09-09T10:32:06;17.90;94.60
27368;DHT22;14839;48.106;11.618;2022-09-09T10:34:55;17.80;94.60
27368;DHT22;14839;48.106;11.618;2022-09-09T10:40:33;17.70;94.60
27368;DHT22;14839;48.106;11.618;2022-09-09T10:45:48;17.90;94.60
27368;DHT22;14839;48.106;11.618;2022-09-09T10:48:31;17.90;94.60
27368;DHT22;14839;48.106;11.618;2022-09-09T10:51:14;18.10;94.60
27368;DHT22;14839;48.106;11.618;2022-09-09T10:53:52;18.20;94.60
27368;DHT22;14839;48.106;11.618;2022-09-09T10:56:29;18.30;94.60
27368;DHT22;14839;48.106;11.618;2022-09-09T10:59:19;18.40;94.60
27368;DHT22;14839;48.106;11.618;2022-09-09T11:01:53;18.60;94.60
27368;DHT22;14839;48.106;11.618;2022-09-09T11:07:21;18.90;94.60
27368;DHT22;14839;48.106;11.618;2022-09-09T11:13:00;18.90;94.60
27368;DHT22;14839;48.106;11.618;2022-09-09T11:15:45;19.00;94.60
27368;DHT22;14839;48.106;11.618;2022-09-09T11:18:17;19.00;94.30
27368;DHT22;14839;48.106;11.618;2022-09-09T11:20:45;19.10;93.60
27368;DHT22;14839;48.106;11.618;2022-09-09T11:23:42;19.00;94.10
27368;DHT22;14839;48.106;11.618;2022-09-09T11:26:38;19.00;93.40
27368;DHT22;14839;48.106;11.618;2022-09-09T11:34:13;18.60;93.20
27368;DHT22;14839;48.106;11.618;2022-09-09T11:42:23;18.80;92.90
27368;DHT22;14839;48.106;11.618;2022-09-09T11:44:49;18.90;93.10
27368;DHT22;14839;48.106;11.618;2022-09-09T11:47:29;19.30;92.60
27368;DHT22;14839;48.106;11.618;2022-09-09T11:52:41;19.50;91.50
27368;DHT22;14839;48.106;11.618;2022-09-09T11:55:28;19.60;91.20
27368;DHT22;14839;48.106;11.618;2022-09-09T11:58:02;19.90;89.90
27368;DHT22;14839;48.106;11.618;2022-09-09T12:00:39;20.00;88.60
27368;DHT22;14839;48.106;11.618;2022-09-09T12:03:45;20.10;87.10
27368;DHT22;14839;48.106;11.618;2022-09-09T12:08:57;20.20;86.30
27368;DHT22;14839;48.106;11.618;2022-09-09T12:11:29;20.20;85.90
27368;DHT22;14839;48.106;11.618;2022-09-09T12:13:58;20.00;87.50
27368;DHT22;14839;48.106;11.618;2022-09-09T12:16:43;19.90;86.90
27368;DHT22;14839;48.106;11.618;2022-09-09T12:19:35;19.90;87.80
27368;DHT22;14839;48.106;11.618;2022-09-09T12:22:08;19.80;88.30
27368;DHT22;14839;48.106;11.618;2022-09-09T12:24:46;19.80;88.00
27368;DHT22;14839;48.106;11.618;2022-09-09T12:27:30;19.90;88.40
27368;DHT22;14839;48.106;11.618;2022-09-09T12:30:18;20.10;86.90
27368;DHT22;14839;48.106;11.618;2022-09-09T12:32:44;20.10;87.50
27368;DHT22;14839;48.106;11.618;2022-09-09T12:35:20;20.10;87.20
27368;DHT22;14839;48.106;11.618;2022-09-09T12:40:19;20.30;86.00
27368;DHT22;14839;48.106;11.618;2022-09-09T12:42:45;20.30;86.50
27368;DHT22;14839;48.106;11.618;2022-09-09T12:45:22;20.40;88.10
27368;DHT22;14839;48.106;11.618;2022-09-09T12:48:04;20.60;86.90
27368;DHT22;14839;48.106;11.618;2022-09-09T12:50:33;20.50;86.80
27368;DHT22;14839;48.106;11.618;2022-09-09T12:55:54;20.60;84.50
27368;DHT22;14839;48.106;11.618;2022-09-09T12:58:21;20.80;85.00
27368;DHT22;14839;48.106;11.618;2022-09-09T13:00:54;20.90;83.60
27368;DHT22;14839;48.106;11.618;2022-09-09T13:03:22;20.90;86.20
27368;DHT22;14839;48.106;11.618;2022-09-09T13:05:49;20.80;85.40
27368;DHT22;14839;48.106;11.618;2022-09-09T13:08:16;20.80;85.30
27368;DHT22;14839;48.106;11.618;2022-09-09T13:11:03;20.70;84.80
27368;DHT22;14839;48.106;11.618;2022-09-09T13:13:30;20.60;85.30
27368;DHT22;14839;48.106;11.618;2022-09-09T13:16:02;20.50;85.30
27368;DHT22;14839;48.106;11.618;2022-09-09T13:18:33;20.30;86.20
27368;DHT22;14839;48.106;11.618;2022-09-09T13:20:59;20.40;86.80
27368;DHT22;14839;48.106;11.618;2022-09-09T13:23:31;20.30;86.00
27368;DHT22;14839;48.106;11.618;2022-09-09T13:26:24;20.10;86.80
27368;DHT22;14839;48.106;11.618;2022-09-09T13:28:52;20.10;86.90
27368;DHT22;14839;48.106;11.618;2022-09-09T13:31:29;20.20;86.50
27368;DHT22;14839;48.106;11.618;2022-09-09T13:37:34;20.20;87.70
27368;DHT22;14839;48.106;11.618;2022-09-09T13:40:02;20.10;86.90
27368;DHT22;14839;48.106;11.618;2022-09-09T13:42:34;19.90;87.50
27368;DHT22;14839;48.106;11.618;2022-09-09T13:45:16;19.80;87.80
27368;DHT22;14839;48.106;11.618;2022-09-09T13:47:45;19.70;89.60
27368;DHT22;14839;48.106;11.618;2022-09-09T13:50:29;19.60;89.00
27368;DHT22;14839;48.106;11.618;2022-09-09T13:52:57;19.50;90.50
27368;DHT22;14839;48.106;11.618;2022-09-09T13:55:27;19.30;90.80
27368;DHT22;14839;48.106;11.618;2022-09-09T13:57:55;19.30;90.80
27368;DHT22;14839;48.106;11.618;2022-09-09T14:00:22;19.20;90.50
27368;DHT22;14839;48.106;11.618;2022-09-09T14:02:48;19.10;89.80
27368;DHT22;14839;48.106;11.618;2022-09-09T14:05:14;18.90;90.20
27368;DHT22;14839;48.106;11.618;2022-09-09T14:07:41;18.80;91.20
27368;DHT22;14839;48.106;11.618;2022-09-09T14:10:07;18.60;91.50
27368;DHT22;14839;48.106;11.618;2022-09-09T14:12:33;18.60;92.10
27368;DHT22;14839;48.106;11.618;2022-09-09T14:14:59;18.60;91.60
27368;DHT22;14839;48.106;11.618;2022-09-09T14:17:27;18.70;92.00
27368;DHT22;14839;48.106;11.618;2022-09-09T14:19:56;18.80;92.50
27368;DHT22;14839;48.106;11.618;2022-09-09T14:22:22;19.00;91.50
27368;DHT22;14839;48.106;11.618;2022-09-09T14:24:49;19.00;91.30
27368;DHT22;14839;48.106;11.618;2022-09-09T14:27:14;18.90;90.60
27368;DHT22;14839;48.106;11.618;2022-09-09T14:29:40;18.90;90.90
27368;DHT22;14839;48.106;11.618;2022-09-09T14:32:06;18.90;90.80
27368;DHT22;14839;48.106;11.618;2022-09-09T14:34:31;18.90;91.40
27368;DHT22;14839;48.106;11.618;2022-09-09T14:36:58;19.00;90.60
27368;DHT22;14839;48.106;11.618;2022-09-09T14:39:24;19.00;90.70
27368;DHT22;14839;48.106;11.618;2022-09-09T14:41:49;19.00;90.90
27368;DHT22;14839;48.106;11.618;2022-09-09T14:44:15;19.00;90.50
27368;DHT22;14839;48.106;11.618;2022-09-09T14:46:41;18.90;90.50
27368;DHT22;14839;48.106;11.618;2022-09-09T14:49:08;19.00;90.40
27368;DHT22;14839;48.106;11.618;2022-09-09T14:51:35;18.90;89.60
27368;DHT22;14839;48.106;11.618;2022-09-09T14:54:02;18.80;90.20
27368;DHT22;14839;48.106;11.618;2022-09-09T14:56:30;18.80;90.20
27368;DHT22;14839;48.106;11.618;2022-09-09T14:58:57;18.80;91.00
27368;DHT22;14839;48.106;11.618;2022-09-09T15:01:24;18.90;91.00
27368;DHT22;14839;48.106;11.618;2022-09-09T15:04:00;18.70;90.40
27368;DHT22;14839;48.106;11.618;2022-09-09T15:06:31;18.80;91.00
27368;DHT22;14839;48.106;11.618;2022-09-09T15:08:58;18.70;91.80
27368;DHT22;14839;48.106;11.618;2022-09-09T15:11:27;18.80;92.60
27368;DHT22;14839;48.106;11.618;2022-09-09T15:13:53;18.70;93.20
27368;DHT22;14839;48.106;11.618;2022-09-09T15:16:21;18.70;93.80
27368;DHT22;14839;48.106;11.618;2022-09-09T15:18:51;18.70;93.10
27368;DHT22;14839;48.106;11.618;2022-09-09T15:21:20;18.70;92.40
27368;DHT22;14839;48.106;11.618;2022-09-09T15:23:47;18.60;92.20
27368;DHT22;14839;48.106;11.618;2022-09-09T15:26:16;18.60;92.40
27368;DHT22;14839;48.106;11.618;2022-09-09T15:28:43;18.60;91.70
27368;DHT22;14839;48.106;11.618;2022-09-09T15:31:17;18.50;91.70
27368;DHT22;14839;48.106;11.618;2022-09-09T15:34:04;18.40;92.20
27368;DHT22;14839;48.106;11.618;2022-09-09T15:36:38;18.30;92.10
27368;DHT22;14839;48.106;11.618;2022-09-09T15:39:07;18.20;92.30
27368;DHT22;14839;48.106;11.618;2022-09-09T15:41:33;18.20;92.00
27368;DHT22;14839;48.106;11.618;2022-09-09T15:43:59;18.10;91.30
27368;DHT22;14839;48.106;11.618;2022-09-09T15:46:33;18.10;91.70
27368;DHT22;14839;48.106;11.618;2022-09-09T15:49:09;18.10;92.20
27368;DHT22;14839;48.106;11.618;2022-09-09T15:51:37;18.10;92.40
27368;DHT22;14839;48.106;11.618;2022-09-09T15:54:03;18.10;92.10
27368;DHT22;14839;48.106;11.618;2022-09-09T15:56:30;18.10;92.90
27368;DHT22;14839;48.106;11.618;2022-09-09T15:58:57;18.20;93.90
27368;DHT22;14839;48.106;11.618;2022-09-09T16:01:23;18.30;94.50
27368;DHT22;14839;48.106;11.618;2022-09-09T16:03:49;18.50;93.60
27368;DHT22;14839;48.106;11.618;2022-09-09T16:06:21;18.60;93.30
27368;DHT22;14839;48.106;11.618;2022-09-09T16:08:49;18.50;92.90
27368;DHT22;14839;48.106;11.618;2022-09-09T16:14:13;18.60;92.10
27368;DHT22;14839;48.106;11.618;2022-09-09T16:16:39;18.50;90.90
27368;DHT22;14839;48.106;11.618;2022-09-09T16:19:07;18.30;90.40
27368;DHT22;14839;48.106;11.618;2022-09-09T16:21:37;18.30;91.10
27368;DHT22;14839;48.106;11.618;2022-09-09T16:24:09;18.30;90.70
27368;DHT22;14839;48.106;11.618;2022-09-09T16:26:37;18.30;91.30
27368;DHT22;14839;48.106;11.618;2022-09-09T16:29:03;18.20;91.10
27368;DHT22;14839;48.106;11.618;2022-09-09T16:31:29;18.20;90.10
27368;DHT22;14839;48.106;11.618;2022-09-09T16:33:57;18.20;89.60
27368;DHT22;14839;48.106;11.618;2022-09-09T16:36:25;18.30;89.80
27368;DHT22;14839;48.106;11.618;2022-09-09T16:38:55;18.40;88.70
27368;DHT22;14839;48.106;11.618;2022-09-09T16:41:23;18.40;88.30
27368;DHT22;14839;48.106;11.618;2022-09-09T16:43:53;18.50;88.10
27368;DHT22;14839;48.106;11.618;2022-09-09T16:46:21;18.60;87.80
27368;DHT22;14839;48.106;11.618;2022-09-09T16:48:47;18.70;88.10
27368;DHT22;14839;48.106;11.618;2022-09-09T16:51:19;18.60;87.20
27368;DHT22;14839;48.106;11.618;2022-09-09T16:53:44;18.60;86.50
27368;DHT22;14839;48.106;11.618;2022-09-09T16:56:13;18.50;86.20
27368;DHT22;14839;48.106;11.618;2022-09-09T16:58:40;18.40;86.90
27368;DHT22;14839;48.106;11.618;2022-09-09T17:01:09;18.30;87.70
27368;DHT22;14839;48.106;11.618;2022-09-09T17:03:35;18.20;88.40
27368;DHT22;14839;48.106;11.618;2022-09-09T17:06:03;18.20;88.70
27368;DHT22;14839;48.106;11.618;2022-09-09T17:08:33;18.00;88.90
27368;DHT22;14839;48.106;11.618;2022-09-09T17:10:59;17.90;89.90
27368;DHT22;14839;48.106;11.618;2022-09-09T17:13:25;17.80;90.50
27368;DHT22;14839;48.106;11.618;2022-09-09T17:15:51;17.70;90.30
27368;DHT22;14839;48.106;11.618;2022-09-09T17:18:16;17.60;91.00
27368;DHT22;14839;48.106;11.618;2022-09-09T17:20:43;17.50;91.50
27368;DHT22;14839;48.106;11.618;2022-09-09T17:23:10;17.40;91.80
27368;DHT22;14839;48.106;11.618;2022-09-09T17:25:37;17.30;92.10
27368;DHT22;14839;48.106;11.618;2022-09-09T17:28:03;17.20;92.30
27368;DHT22;14839;48.106;11.618;2022-09-09T17:30:36;17.10;92.80
27368;DHT22;14839;48.106;11.618;2022-09-09T17:33:02;17.00;93.50
27368;DHT22;14839;48.106;11.618;2022-09-09T17:35:29;16.90;94.10
27368;DHT22;14839;48.106;11.618;2022-09-09T17:37:55;16.80;94.60
27368;DHT22;14839;48.106;11.618;2022-09-09T17:40:22;16.70;94.60
27368;DHT22;14839;48.106;11.618;2022-09-09T17:42:47;16.60;94.60
27368;DHT22;14839;48.106;11.618;2022-09-09T17:45:13;16.50;94.60
27368;DHT22;14839;48.106;11.618;2022-09-09T17:47:42;16.40;94.60
27368;DHT22;14839;48.106;11.618;2022-09-09T17:50:09;16.40;94.60
27368;DHT22;14839;48.106;11.618;2022-09-09T17:52:35;16.30;94.60
27368;DHT22;14839;48.106;11.618;2022-09-09T17:55:03;16.20;94.60
27368;DHT22;14839;48.106;11.618;2022-09-09T17:57:28;16.10;94.60
27368;DHT22;14839;48.106;11.618;2022-09-09T17:59:54;16.00;94.60
27368;DHT22;14839;48.106;11.618;2022-09-09T18:02:20;16.00;94.60
27368;DHT22;14839;48.106;11.618;2022-09-09T18:04:46;15.90;94.60
27368;DHT22;14839;48.106;11.618;2022-09-09T18:07:11;15.80;94.60
27368;DHT22;14839;48.106;11.618;2022-09-09T18:09:38;15.70;94.60
27368;DHT22;14839;48.106;11.618;2022-09-09T18:12:05;15.60;94.60
27368;DHT22;14839;48.106;11.618;2022-09-09T18:14:32;15.50;94.60
27368;DHT22;14839;48.106;11.618;2022-09-09T18:16:59;15.50;94.60
27368;DHT22;14839;48.106;11.618;2022-09-09T18:19:27;15.40;94.60
27368;DHT22;14839;48.106;11.618;2022-09-09T18:21:56;15.40;94.60
27368;DHT22;14839;48.106;11.618;2022-09-09T18:24:22;15.30;94.60
27368;DHT22;14839;48.106;11.618;2022-09-09T18:26:49;15.30;94.60
27368;DHT22;14839;48.106;11.618;2022-09-09T18:29:21;15.30;94.60
27368;DHT22;14839;48.106;11.618;2022-09-09T18:31:49;15.20;94.60
27368;DHT22;14839;48.106;11.618;2022-09-09T18:34:16;15.20;94.60
27368;DHT22;14839;48.106;11.618;2022-09-09T18:36:58;15.20;94.60
27368;DHT22;14839;48.106;11.618;2022-09-09T18:42:50;15.10;94.60
27368;DHT22;14839;48.106;11.618;2022-09-09T18:45:27;15.00;94.60
27368;DHT22;14839;48.106;11.618;2022-09-09T18:48:02;14.90;94.60
27368;DHT22;14839;48.106;11.618;2022-09-09T18:50:28;14.90;94.60
27368;DHT22;14839;48.106;11.618;2022-09-09T18:52:53;14.80;94.60
27368;DHT22;14839;48.106;11.618;2022-09-09T18:55:19;14.80;94.60
27368;DHT22;14839;48.106;11.618;2022-09-09T18:57:45;14.80;94.60
27368;DHT22;14839;48.106;11.618;2022-09-09T19:00:10;14.70;94.60
27368;DHT22;14839;48.106;11.618;2022-09-09T19:02:36;14.70;94.60
27368;DHT22;14839;48.106;11.618;2022-09-09T19:05:03;14.70;94.60
27368;DHT22;14839;48.106;11.618;2022-09-09T19:07:29;14.60;94.60
27368;DHT22;14839;48.106;11.618;2022-09-09T19:09:54;14.60;94.60
27368;DHT22;14839;48.106;11.618;2022-09-09T19:12:20;14.60;94.60
27368;DHT22;14839;48.106;11.618;2022-09-09T19:14:46;14.60;94.60
27368;DHT22;14839;48.106;11.618;2022-09-09T19:17:12;14.50;94.60
27368;DHT22;14839;48.106;11.618;2022-09-09T19:19:37;14.50;94.60
27368;DHT22;14839;48.106;11.618;2022-09-09T19:22:06;14.50;94.60
27368;DHT22;14839;48.106;11.618;2022-09-09T19:24:36;14.50;94.60
27368;DHT22;14839;48.106;11.618;2022-09-09T19:27:03;14.50;94.60
27368;DHT22;14839;48.106;11.618;2022-09-09T19:29:32;14.60;94.60
27368;DHT22;14839;48.106;11.618;2022-09-09T19:31:59;14.70;94.60
27368;DHT22;14839;48.106;11.618;2022-09-09T19:34:26;14.80;94.60
27368;DHT22;14839;48.106;11.618;2022-09-09T19:36:51;14.80;94.60
27368;DHT22;14839;48.106;11.618;2022-09-09T19:39:18;15.00;94.60
27368;DHT22;14839;48.106;11.618;2022-09-09T19:41:44;15.00;94.60
27368;DHT22;14839;48.106;11.618;2022-09-09T19:44:12;15.00;94.60
27368;DHT22;14839;48.106;11.618;2022-09-09T19:46:39;15.10;94.60
27368;DHT22;14839;48.106;11.618;2022-09-09T19:49:07;15.20;94.60
27368;DHT22;14839;48.106;11.618;2022-09-09T19:51:33;15.10;94.60
27368;DHT22;14839;48.106;11.618;2022-09-09T19:54:06;15.10;94.60
27368;DHT22;14839;48.106;11.618;2022-09-09T19:56:34;15.20;94.60
27368;DHT22;14839;48.106;11.618;2022-09-09T19:59:01;15.10;94.60
27368;DHT22;14839;48.106;11.618;2022-09-09T20:01:32;15.10;94.60
27368;DHT22;14839;48.106;11.618;2022-09-09T20:04:00;15.20;94.60
27368;DHT22;14839;48.106;11.618;2022-09-09T20:06:29;15.30;94.60
27368;DHT22;14839;48.106;11.618;2022-09-09T20:08:55;15.30;94.60
27368;DHT22;14839;48.106;11.618;2022-09-09T20:11:22;15.30;94.60
27368;DHT22;14839;48.106;11.618;2022-09-09T20:13:48;15.20;94.60
27368;DHT22;14839;48.106;11.618;2022-09-09T20:16:20;15.20;94.60
27368;DHT22;14839;48.106;11.618;2022-09-09T20:18:48;15.20;94.60
27368;DHT22;14839;48.106;11.618;2022-09-09T20:21:19;15.20;94.60
27368;DHT22;14839;48.106;11.618;2022-09-09T20:23:46;15.20;94.60
27368;DHT22;14839;48.106;11.618;2022-09-09T20:26:14;15.30;94.60
27368;DHT22;14839;48.106;11.618;2022-09-09T20:28:42;15.20;94.60
27368;DHT22;14839;48.106;11.618;2022-09-09T20:31:14;15.10;94.60
27368;DHT22;14839;48.106;11.618;2022-09-09T20:33:41;15.10;94.60
27368;DHT22;14839;48.106;11.618;2022-09-09T20:36:21;15.00;94.60
27368;DHT22;14839;48.106;11.618;2022-09-09T20:38:48;14.90;94.60
27368;DHT22;14839;48.106;11.618;2022-09-09T20:41:16;14.80;94.60
27368;DHT22;14839;48.106;11.618;2022-09-09T20:43:49;14.70;94.60